createdAt,value
2022-12-22T00:00:02.805Z,73.43
2022-12-22T00:02:58.598Z,73.33
2022-12-22T00:05:45.204Z,73.33
2022-12-22T00:08:31.103Z,73.33
2022-12-22T00:11:20.131Z,72.95
2022-12-22T00:14:06.492Z,73.11
2022-12-22T00:16:55.224Z,73.48
2022-12-22T00:19:41.927Z,72.73
2022-12-22T00:22:33.226Z,72.77
2022-12-22T00:25:18.983Z,74.20
2022-12-22T00:28:05.093Z,74.76
2022-12-22T00:30:51.095Z,74.45
2022-12-22T00:33:39.373Z,74.54
2022-12-22T00:36:29.203Z,74.34
2022-12-22T00:39:15.852Z,73.75
2022-12-22T00:42:02.247Z,73.84
2022-12-22T00:44:48.369Z,73.18
2022-12-22T00:47:44.257Z,73.45
2022-12-22T00:50:31.009Z,73.63
2022-12-22T00:53:18.399Z,73.37
2022-12-22T00:56:04.594Z,73.61
2022-12-22T00:58:51.047Z,72.86
2022-12-22T01:01:37.276Z,73.85
2022-12-22T01:04:23.311Z,74.22
2022-12-22T01:07:09.479Z,74.39
2022-12-22T01:09:55.454Z,74.02
2022-12-22T01:12:45.845Z,73.87
2022-12-22T01:15:37.746Z,73.37
2022-12-22T01:18:25.501Z,73.20
2022-12-22T01:21:12.378Z,73.11
2022-12-22T01:23:59.622Z,72.63
2022-12-22T01:26:45.880Z,73.85
2022-12-22T01:29:32.027Z,73.67
2022-12-22T01:32:17.957Z,73.40
2022-12-22T01:35:04.151Z,73.16
2022-12-22T01:37:50.028Z,73.11
2022-12-22T01:40:42.414Z,72.91
2022-12-22T01:43:46.441Z,73.16
2022-12-22T01:46:52.809Z,73.27
2022-12-22T01:49:49.270Z,73.14
2022-12-22T01:52:38.329Z,73.07
2022-12-22T01:55:32.269Z,73.66
2022-12-22T01:58:18.546Z,73.26
2022-12-22T02:01:05.899Z,73.00
2022-12-22T02:03:52.519Z,72.65
2022-12-22T02:07:00.232Z,72.02
2022-12-22T02:10:03.112Z,73.26
2022-12-22T02:13:13.282Z,72.79
2022-12-22T02:16:15.954Z,72.78
2022-12-22T02:19:38.381Z,72.63
2022-12-22T02:22:53.308Z,73.04
2022-12-22T02:25:50.517Z,73.31
2022-12-22T02:28:36.842Z,73.29
2022-12-22T02:31:25.070Z,72.98
2022-12-22T02:34:10.895Z,72.94
2022-12-22T02:37:09.486Z,73.19
2022-12-22T02:40:04.467Z,72.43
2022-12-22T02:42:53.697Z,73.00
2022-12-22T02:45:49.103Z,73.19
2022-12-22T02:48:42.293Z,72.24
2022-12-22T02:51:36.095Z,72.12
2022-12-22T02:54:24.709Z,72.13
2022-12-22T02:57:10.528Z,72.92
2022-12-22T02:59:56.694Z,72.91
2022-12-22T03:02:42.972Z,73.71
2022-12-22T03:05:29.197Z,74.25
2022-12-22T03:08:15.010Z,74.00
2022-12-22T03:11:01.173Z,73.88
2022-12-22T03:13:46.973Z,73.98
2022-12-22T03:16:33.254Z,73.94
2022-12-22T03:19:19.220Z,73.64
2022-12-22T03:22:05.259Z,73.66
2022-12-22T03:24:51.375Z,73.85
2022-12-22T03:27:19.071Z,73.79
2022-12-22T03:29:46.414Z,74.11
2022-12-22T03:32:13.832Z,72.85
2022-12-22T03:34:41.903Z,72.52
2022-12-22T03:37:09.243Z,72.57
2022-12-22T03:39:36.520Z,72.76
2022-12-22T03:42:22.566Z,73.27
2022-12-22T03:45:08.651Z,72.85
2022-12-22T03:47:36.238Z,72.68
2022-12-22T03:50:03.664Z,72.87
2022-12-22T03:52:31.172Z,72.96
2022-12-22T03:54:58.695Z,72.94
2022-12-22T03:57:25.974Z,72.65
2022-12-22T03:59:53.187Z,73.16
2022-12-22T04:02:20.803Z,72.65
2022-12-22T04:04:48.645Z,72.14
2022-12-22T04:07:16.059Z,72.33
2022-12-22T04:10:03.316Z,72.03
2022-12-22T04:12:49.697Z,72.98
2022-12-22T04:15:17.120Z,73.49
2022-12-22T04:17:44.811Z,73.80
2022-12-22T04:20:12.386Z,72.78
2022-12-22T04:22:39.586Z,72.70
2022-12-22T04:25:07.816Z,72.77
2022-12-22T04:27:35.409Z,73.03
2022-12-22T04:30:03.442Z,73.11
2022-12-22T04:32:31.424Z,72.74
2022-12-22T04:34:58.777Z,73.40
2022-12-22T04:37:26.827Z,73.50
2022-12-22T04:39:54.639Z,72.85
2022-12-22T04:42:21.972Z,73.17
2022-12-22T04:44:50.286Z,73.12
2022-12-22T04:47:18.191Z,72.59
2022-12-22T04:49:45.782Z,72.74
2022-12-22T04:52:13.447Z,72.78
2022-12-22T04:54:41.469Z,72.83
2022-12-22T04:57:09.190Z,73.06
2022-12-22T04:59:36.656Z,72.63
2022-12-22T05:02:04.945Z,73.77
2022-12-22T05:04:32.703Z,73.36
2022-12-22T05:07:00.273Z,73.56
2022-12-22T05:09:28.837Z,73.44
2022-12-22T05:11:56.126Z,73.24
2022-12-22T05:14:24.161Z,73.07
2022-12-22T05:16:52.192Z,72.44
2022-12-22T05:19:20.555Z,72.24
2022-12-22T05:21:48.060Z,72.13
2022-12-22T05:24:15.897Z,72.05
2022-12-22T05:26:43.409Z,71.89
2022-12-22T05:29:10.791Z,73.01
2022-12-22T05:31:43.245Z,73.26
2022-12-22T05:34:14.258Z,72.68
2022-12-22T05:36:41.908Z,72.55
2022-12-22T05:39:09.671Z,72.56
2022-12-22T05:41:37.171Z,73.12
2022-12-22T05:44:05.194Z,73.58
2022-12-22T05:46:32.595Z,73.24
2022-12-22T05:48:59.892Z,72.54
2022-12-22T05:51:27.753Z,72.58
2022-12-22T05:53:55.620Z,72.39
2022-12-22T05:56:23.816Z,72.54
2022-12-22T05:58:51.817Z,72.63
2022-12-22T06:01:19.177Z,72.71
2022-12-22T06:03:47.505Z,73.22
2022-12-22T06:06:14.768Z,73.31
2022-12-22T06:08:42.115Z,74.12
2022-12-22T06:11:10.312Z,74.15
2022-12-22T06:13:37.737Z,73.58
2022-12-22T06:16:05.416Z,73.29
2022-12-22T06:18:33.086Z,73.86
2022-12-22T06:21:00.375Z,73.92
2022-12-22T06:23:28.700Z,73.63
2022-12-22T06:25:59.623Z,73.22
2022-12-22T06:28:27.929Z,72.79
2022-12-22T06:30:56.216Z,72.83
2022-12-22T06:33:25.587Z,73.68
2022-12-22T06:35:58.711Z,73.39
2022-12-22T06:38:28.912Z,71.42
2022-12-22T06:40:56.634Z,71.22
2022-12-22T06:43:25.228Z,69.85
2022-12-22T06:45:53.833Z,68.65
2022-12-22T06:48:21.760Z,66.56
2022-12-22T06:50:49.206Z,66.43
2022-12-22T06:53:16.940Z,68.16
2022-12-22T06:55:44.482Z,68.11
2022-12-22T06:58:12.641Z,67.59
2022-12-22T07:00:40.303Z,67.99
2022-12-22T07:03:07.780Z,68.96
2022-12-22T07:05:35.275Z,68.75
2022-12-22T07:08:08.386Z,67.56
2022-12-22T07:10:55.581Z,68.49
2022-12-22T07:13:24.329Z,68.65
2022-12-22T07:16:00.221Z,69.43
2022-12-22T07:18:34.046Z,69.33
2022-12-22T07:21:03.754Z,69.46
2022-12-22T07:23:32.336Z,69.55
2022-12-22T07:26:00.151Z,68.78
2022-12-22T07:28:28.045Z,68.18
2022-12-22T07:30:56.303Z,67.90
2022-12-22T07:33:23.821Z,68.24
2022-12-22T07:36:01.849Z,68.83
2022-12-22T07:38:29.889Z,68.31
2022-12-22T07:41:04.635Z,67.17
2022-12-22T07:43:32.996Z,68.83
2022-12-22T07:46:00.571Z,68.64
2022-12-22T07:48:47.869Z,68.77
2022-12-22T07:51:16.311Z,68.36
2022-12-22T07:53:43.630Z,66.41
2022-12-22T07:56:10.904Z,67.80
2022-12-22T07:58:38.632Z,67.33
2022-12-22T08:01:05.931Z,67.67
2022-12-22T08:03:33.817Z,67.84
2022-12-22T08:06:05.306Z,65.95
2022-12-22T08:08:34.053Z,65.84
2022-12-22T08:11:03.337Z,64.13
2022-12-22T08:13:32.242Z,65.08
2022-12-22T08:16:05.539Z,65.84
2022-12-22T08:18:35.031Z,67.98
2022-12-22T08:21:03.717Z,68.18
2022-12-22T08:23:32.295Z,68.91
2022-12-22T08:26:09.279Z,67.39
2022-12-22T08:28:42.000Z,66.81
2022-12-22T08:31:10.830Z,66.11
2022-12-22T08:33:38.194Z,65.96
2022-12-22T08:36:08.499Z,65.78
2022-12-22T08:38:38.877Z,64.92
2022-12-22T08:41:07.913Z,65.70
2022-12-22T08:43:35.429Z,65.72
2022-12-22T08:46:02.951Z,65.55
2022-12-22T08:48:30.378Z,65.24
2022-12-22T08:50:58.272Z,65.47
2022-12-22T08:54:02.394Z,64.33
2022-12-22T08:56:13.388Z,64.38
2022-12-22T08:58:40.966Z,62.57
2022-12-22T09:01:08.531Z,62.52
2022-12-22T09:03:36.243Z,61.36
2022-12-22T09:06:03.942Z,60.34
2022-12-22T09:08:34.617Z,59.11
2022-12-22T09:11:05.765Z,59.89
2022-12-22T09:13:33.282Z,59.57
2022-12-22T09:16:04.538Z,58.26
2022-12-22T09:18:32.365Z,57.12
2022-12-22T09:21:00.591Z,56.04
2022-12-22T09:23:30.249Z,54.19
2022-12-22T09:25:58.015Z,54.12
2022-12-22T09:28:25.435Z,54.95
2022-12-22T09:30:53.766Z,54.67
2022-12-22T09:33:21.658Z,54.10
2022-12-22T09:35:49.096Z,52.90
2022-12-22T09:38:16.956Z,51.45
2022-12-22T09:40:44.685Z,50.51
2022-12-22T09:43:19.356Z,50.30
2022-12-22T09:45:48.273Z,48.87
2022-12-22T09:48:16.012Z,49.77
2022-12-22T09:50:59.484Z,47.66
2022-12-22T09:53:27.293Z,48.82
2022-12-22T09:55:55.355Z,46.89
2022-12-22T09:58:34.792Z,48.10
2022-12-22T10:01:05.963Z,46.89
2022-12-22T10:03:43.554Z,47.45
2022-12-22T10:06:18.038Z,46.72
2022-12-22T10:08:46.251Z,45.62
2022-12-22T10:11:19.112Z,44.27
2022-12-22T10:13:47.021Z,45.04
2022-12-22T10:16:23.755Z,42.50
2022-12-22T10:19:02.107Z,42.20
2022-12-22T10:21:29.567Z,41.84
2022-12-22T10:23:57.280Z,40.89
2022-12-22T10:26:32.555Z,41.08
2022-12-22T10:29:10.669Z,41.36
2022-12-22T10:31:57.574Z,41.19
2022-12-22T10:34:25.689Z,38.77
2022-12-22T10:36:57.770Z,38.80
2022-12-22T10:39:28.405Z,39.03
2022-12-22T10:42:09.588Z,38.63
2022-12-22T10:44:39.332Z,37.08
2022-12-22T10:47:24.447Z,36.35
2022-12-22T10:52:31.029Z,32.41
2022-12-22T10:55:18.633Z,31.42
2022-12-22T10:57:46.192Z,29.95
2022-12-22T11:00:29.964Z,29.59
2022-12-22T11:03:02.325Z,28.46
2022-12-22T11:05:32.628Z,29.40
2022-12-22T11:08:20.233Z,29.93
2022-12-22T11:11:26.648Z,31.49
2022-12-22T11:14:04.117Z,30.27
2022-12-22T11:16:36.831Z,31.25
2022-12-22T11:19:33.386Z,30.59
2022-12-22T11:22:24.183Z,29.93
2022-12-22T11:25:10.318Z,30.41
2022-12-22T11:27:47.993Z,29.98
2022-12-22T11:30:21.764Z,30.11
2022-12-22T11:32:58.395Z,30.20
2022-12-22T11:35:49.024Z,29.95
2022-12-22T11:38:46.991Z,29.80
2022-12-22T11:41:29.301Z,29.31
2022-12-22T11:44:30.728Z,28.58
2022-12-22T11:47:17.234Z,28.95
2022-12-22T11:51:00.261Z,28.74
2022-12-22T11:53:20.852Z,28.01
2022-12-22T11:56:25.462Z,26.75
2022-12-22T11:59:01.230Z,26.79
2022-12-22T12:01:40.686Z,25.15
2022-12-22T12:04:27.019Z,25.74
2022-12-22T12:07:29.403Z,24.78
2022-12-22T12:10:31.976Z,23.99
2022-12-22T12:13:05.346Z,23.69
2022-12-22T12:15:45.733Z,23.26
2022-12-22T12:18:28.154Z,22.73
2022-12-22T12:21:07.348Z,22.86
2022-12-22T12:24:12.149Z,21.51
2022-12-22T12:27:01.064Z,21.31
2022-12-22T12:29:35.757Z,21.52
2022-12-22T12:32:14.049Z,19.93
2022-12-22T12:34:47.163Z,21.01
2022-12-22T12:37:26.325Z,20.70
2022-12-22T12:40:20.965Z,19.75
2022-12-22T12:42:49.467Z,20.17
2022-12-22T12:45:35.165Z,20.06
2022-12-22T12:48:21.339Z,19.55
2022-12-22T12:50:58.416Z,20.25
2022-12-22T12:53:28.769Z,20.23
2022-12-22T12:55:58.500Z,20.71
2022-12-22T12:58:38.124Z,20.36
2022-12-22T13:01:33.166Z,21.42
2022-12-22T13:04:04.295Z,20.27
2022-12-22T13:06:52.212Z,21.12
2022-12-22T13:12:39.556Z,22.74
2022-12-22T13:15:27.241Z,23.43
2022-12-22T13:17:54.807Z,23.87
2022-12-22T13:20:30.046Z,23.89
2022-12-22T13:23:00.574Z,23.78
2022-12-22T13:25:47.808Z,23.42
2022-12-22T13:28:17.215Z,24.09
2022-12-22T13:30:51.231Z,25.95
2022-12-22T13:33:21.148Z,27.20
2022-12-22T13:35:56.584Z,28.64
2022-12-22T13:38:37.842Z,29.76
2022-12-22T13:41:21.368Z,31.14
2022-12-22T13:43:57.496Z,31.99
2022-12-22T13:46:27.533Z,33.53
2022-12-22T13:48:57.105Z,34.37
2022-12-22T13:51:29.207Z,35.60
2022-12-22T13:54:11.206Z,36.07
2022-12-22T13:56:45.721Z,36.42
2022-12-22T13:59:32.171Z,36.81
2022-12-22T14:02:01.544Z,37.20
2022-12-22T14:04:30.397Z,37.52
2022-12-22T14:07:09.663Z,38.14
2022-12-22T14:09:38.126Z,38.49
2022-12-22T14:12:20.160Z,39.10
2022-12-22T14:14:52.391Z,39.43
2022-12-22T14:17:30.527Z,40.00
2022-12-22T14:20:00.344Z,40.34
2022-12-22T14:22:34.171Z,40.48
2022-12-22T14:25:15.737Z,40.84
2022-12-22T14:27:48.954Z,41.28
2022-12-22T14:30:19.723Z,41.94
2022-12-22T14:32:54.660Z,42.38
2022-12-22T14:35:23.193Z,42.36
2022-12-22T14:38:07.721Z,42.46
2022-12-22T14:40:38.632Z,43.01
2022-12-22T14:43:20.545Z,42.89
2022-12-22T14:45:50.764Z,43.07
2022-12-22T14:48:45.243Z,43.07
2022-12-22T14:51:18.837Z,43.58
2022-12-22T14:53:55.919Z,44.23
2022-12-22T14:56:24.765Z,44.89
2022-12-22T14:58:52.298Z,45.56
2022-12-22T15:01:29.546Z,45.92
2022-12-22T15:04:08.330Z,46.61
2022-12-22T15:06:40.290Z,47.18
2022-12-22T15:09:47.234Z,47.56
2022-12-22T15:12:14.856Z,47.36
2022-12-22T15:14:42.702Z,47.71
2022-12-22T15:17:28.164Z,47.53
2022-12-22T15:19:58.965Z,47.94
2022-12-22T15:22:26.419Z,48.64
2022-12-22T15:24:53.789Z,49.38
2022-12-22T15:27:21.576Z,49.83
2022-12-22T15:29:48.966Z,49.54
2022-12-22T15:32:16.216Z,50.48
2022-12-22T15:34:44.048Z,50.06
2022-12-22T15:37:12.950Z,50.81
2022-12-22T15:39:40.672Z,51.87
2022-12-22T15:42:08.510Z,51.51
2022-12-22T15:44:38.948Z,52.46
2022-12-22T15:47:10.599Z,52.23
2022-12-22T15:49:38.813Z,52.70
2022-12-22T15:52:07.106Z,52.92
2022-12-22T15:54:36.513Z,53.21
2022-12-22T15:57:04.340Z,53.94
2022-12-22T15:59:31.676Z,53.56
2022-12-22T16:02:01.771Z,53.84
2022-12-22T16:04:30.225Z,54.80
2022-12-22T16:06:59.648Z,55.40
2022-12-22T16:09:29.105Z,55.67
2022-12-22T16:11:58.022Z,56.95
2022-12-22T16:14:25.390Z,56.64
2022-12-22T16:16:52.713Z,57.22
2022-12-22T16:19:20.460Z,56.86
2022-12-22T16:21:51.625Z,56.73
2022-12-22T16:24:32.009Z,56.00
2022-12-22T16:27:00.649Z,56.91
2022-12-22T16:29:28.298Z,57.42
2022-12-22T16:32:17.649Z,57.57
2022-12-22T16:34:45.815Z,59.23
2022-12-22T16:37:13.224Z,59.30
2022-12-22T16:39:40.967Z,59.04
2022-12-22T16:45:06.217Z,58.06
2022-12-22T16:47:36.605Z,58.28
2022-12-22T16:50:06.731Z,58.56
2022-12-22T16:52:38.993Z,58.55
2022-12-22T16:55:17.541Z,58.03
2022-12-22T16:57:45.451Z,58.33
2022-12-22T17:00:18.900Z,57.87
2022-12-22T17:02:51.989Z,58.74
2022-12-22T17:05:25.555Z,58.64
2022-12-22T17:07:55.375Z,59.87
2022-12-22T17:10:23.698Z,59.12
2022-12-22T17:12:55.431Z,60.04
2022-12-22T17:15:24.220Z,59.94
2022-12-22T17:17:52.513Z,60.51
2022-12-22T17:20:22.943Z,61.46
2022-12-22T17:23:02.453Z,61.88
2022-12-22T17:25:31.290Z,62.23
2022-12-22T17:28:01.812Z,62.45
2022-12-22T17:30:29.219Z,62.52
2022-12-22T17:32:56.647Z,62.33
2022-12-22T17:35:26.263Z,62.48
2022-12-22T17:37:54.904Z,62.90
2022-12-22T17:40:26.786Z,63.55
2022-12-22T17:42:54.828Z,62.90
2022-12-22T17:45:22.470Z,62.81
2022-12-22T17:47:50.093Z,63.00
2022-12-22T17:50:20.360Z,61.89
2022-12-22T17:52:48.177Z,62.25
2022-12-22T17:56:05.891Z,62.73
2022-12-22T17:58:17.161Z,62.54
2022-12-22T18:00:44.771Z,63.09
2022-12-22T18:03:14.249Z,63.97
2022-12-22T18:05:46.274Z,64.54
2022-12-22T18:08:18.268Z,64.31
2022-12-22T18:10:47.654Z,64.53
2022-12-22T18:13:22.970Z,64.74
2022-12-22T18:15:50.365Z,64.24
2022-12-22T18:18:18.473Z,63.58
2022-12-22T18:21:06.175Z,64.10
2022-12-22T18:23:36.826Z,64.48
2022-12-22T18:26:08.553Z,65.12
2022-12-22T18:28:37.070Z,65.92
2022-12-22T18:31:04.522Z,66.22
2022-12-22T18:33:31.931Z,65.69
2022-12-22T18:36:00.136Z,65.83
2022-12-22T18:38:33.290Z,65.19
2022-12-22T18:41:01.219Z,65.18
2022-12-22T18:43:28.560Z,64.96
2022-12-22T18:45:55.815Z,65.26
2022-12-22T18:48:23.607Z,65.30
2022-12-22T18:50:51.339Z,65.87
2022-12-22T18:53:24.634Z,65.31
2022-12-22T18:55:52.534Z,65.29
2022-12-22T18:58:19.964Z,64.98
2022-12-22T19:00:48.050Z,64.44
2022-12-22T19:03:21.721Z,65.37
2022-12-22T19:05:49.628Z,65.46
2022-12-22T19:08:26.057Z,66.14
2022-12-22T19:10:56.321Z,66.15
2022-12-22T19:13:39.028Z,65.94
2022-12-22T19:16:07.513Z,65.47
2022-12-22T19:18:35.255Z,65.43
2022-12-22T19:21:02.888Z,65.47
2022-12-22T19:23:30.266Z,65.19
2022-12-22T19:26:08.506Z,65.06
2022-12-22T19:28:42.810Z,65.41
2022-12-22T19:31:21.057Z,65.37
2022-12-22T19:33:49.297Z,66.44
2022-12-22T19:36:21.838Z,66.74
2022-12-22T19:38:50.971Z,66.10
2022-12-22T19:41:47.348Z,66.27
2022-12-22T19:44:21.711Z,66.08
2022-12-22T19:46:50.376Z,66.43
2022-12-22T19:49:23.143Z,66.73
2022-12-22T19:51:51.375Z,67.38
2022-12-22T19:54:22.148Z,66.99
2022-12-22T19:56:53.564Z,67.17
2022-12-22T19:59:37.293Z,67.24
2022-12-22T20:02:25.092Z,67.33
2022-12-22T20:04:53.840Z,67.51
2022-12-22T20:07:24.904Z,68.04
2022-12-22T20:09:53.090Z,67.52
2022-12-22T20:12:20.327Z,68.04
2022-12-22T20:14:47.680Z,68.08
2022-12-22T20:17:15.330Z,69.07
2022-12-22T20:19:42.650Z,68.50
2022-12-22T20:22:15.434Z,69.32
2022-12-22T20:24:46.496Z,69.09
2022-12-22T20:27:34.807Z,68.21
2022-12-22T20:30:02.543Z,68.35
2022-12-22T20:32:30.502Z,68.56
2022-12-22T20:34:57.967Z,69.27
2022-12-22T20:37:28.637Z,69.44
2022-12-22T20:39:56.036Z,69.35
2022-12-22T20:42:24.630Z,69.45
2022-12-22T20:45:02.191Z,68.89
2022-12-22T20:47:31.179Z,69.81
2022-12-22T20:49:59.658Z,69.63
2022-12-22T20:52:27.109Z,69.84
2022-12-22T20:54:54.487Z,69.77
2022-12-22T20:57:23.548Z,69.87
2022-12-22T20:59:56.068Z,69.64
2022-12-22T21:02:29.525Z,69.60
2022-12-22T21:04:57.278Z,70.07
2022-12-22T21:07:25.271Z,71.06
2022-12-22T21:09:52.901Z,70.51
2022-12-22T21:12:21.271Z,70.83
2022-12-22T21:14:49.696Z,71.22
2022-12-22T21:17:17.545Z,72.65
2022-12-22T21:19:45.553Z,69.78
2022-12-22T21:22:13.214Z,69.37
2022-12-22T21:24:41.914Z,69.10
2022-12-22T21:27:17.454Z,70.11
2022-12-22T21:29:45.312Z,70.18
2022-12-22T21:32:15.593Z,69.76
2022-12-22T21:34:42.976Z,69.66
2022-12-22T21:37:18.461Z,70.60
2022-12-22T21:39:46.290Z,70.40
2022-12-22T21:42:20.015Z,70.51
2022-12-22T21:44:47.583Z,71.11
2022-12-22T21:47:18.563Z,70.34
2022-12-22T21:49:45.881Z,70.42
2022-12-22T21:52:13.407Z,71.04
2022-12-22T21:54:41.131Z,70.68
2022-12-22T21:57:15.119Z,71.41
2022-12-22T21:59:42.874Z,71.26
2022-12-22T22:02:16.474Z,71.29
2022-12-22T22:04:50.146Z,71.19
2022-12-22T22:07:21.756Z,71.24
2022-12-22T22:09:49.504Z,71.26
2022-12-22T22:12:32.969Z,71.00
2022-12-22T22:15:04.044Z,71.29
2022-12-22T22:17:31.669Z,71.28
2022-12-22T22:19:59.055Z,70.93
2022-12-22T22:22:26.864Z,70.41
2022-12-22T22:24:54.171Z,70.83
2022-12-22T22:27:21.712Z,71.73
2022-12-22T22:29:49.440Z,72.73
2022-12-22T22:32:17.121Z,72.20
2022-12-22T22:34:44.447Z,71.17
2022-12-22T22:37:12.387Z,71.73
2022-12-22T22:39:39.607Z,71.90
2022-12-22T22:42:07.001Z,72.18
2022-12-22T22:44:34.658Z,71.91
2022-12-22T22:47:02.085Z,71.63
2022-12-22T22:49:29.416Z,71.71
2022-12-22T22:51:57.077Z,71.10
2022-12-22T22:54:24.332Z,71.44
2022-12-22T22:56:52.763Z,71.71
2022-12-22T22:59:21.931Z,71.67
2022-12-22T23:01:49.276Z,71.43
2022-12-22T23:04:16.921Z,72.20
2022-12-22T23:06:44.837Z,72.43
2022-12-22T23:09:12.195Z,72.06
2022-12-22T23:11:39.464Z,72.50
2022-12-22T23:14:07.220Z,72.86
2022-12-22T23:16:38.454Z,72.82
2022-12-22T23:19:06.965Z,73.20
2022-12-22T23:21:34.576Z,73.26
2022-12-22T23:24:01.923Z,73.17
2022-12-22T23:26:29.626Z,73.19
2022-12-22T23:29:02.858Z,72.94
2022-12-22T23:31:34.973Z,72.63
2022-12-22T23:34:02.836Z,73.20
2022-12-22T23:36:30.548Z,73.67
2022-12-22T23:38:58.369Z,73.81
2022-12-22T23:41:25.606Z,74.90
2022-12-22T23:43:54.572Z,74.39
2022-12-22T23:46:22.279Z,73.78
2022-12-22T23:48:54.782Z,73.83
2022-12-22T23:51:24.391Z,73.67
2022-12-22T23:53:51.662Z,73.31
2022-12-22T23:56:19.194Z,72.97
2022-12-22T23:58:49.590Z,72.93
